Cherryvale, Kansas
Current Conditions -  °F | °C
As of 6:52 AM on Friday 24 Oct 2014 (Local Time) from KPPF Reporting Station
Overcast Overcast  
Wind Chill: 56°   Ceiling: 4400
Heat Index: 56°   Visibility: 9mi
Dew Point: 55°   Wind: 0mph
Humidity: 97%   Direction: NA
Pressure: 30.1"   Gusts: NA
Location:  37.27°N, 95.55°W
Report Text: KPPF 241152Z AUTO 00000KT 9SM OVC044 13/13 A3010 RMK AO2 SLP189 T01330128 10139 20122 55003
Loading
Personal Weather Stations






























Interactive Weather Map
Tropical Storm Tracking
New forecast layout! Learn more

10-Day Weather Forecast

Advertisements
Track Severe Weather on mobile